Time;durP1;ratioP1;P1;durP2;ratioP2;P2;SDS_P1;SDS_P2;PMS_P1;PMS_P2;Temp;Humidity;BMP_temperature;BMP_pressure;BME280_temperature;BME280_humidity;BME280_pressure;Samples;Min_cycle;Max_cycle;Signal;HPM_P1;HPM_P2
2021/06/18 00:00:17;;;;;;;7.50;2.55;;;;;;;20.47;67.88;100790.55;1745782;80;21788;-57
2021/06/18 00:03:22;;;;;;;9.50;2.77;;;;;;;20.45;67.97;100782.43;1745708;82;21232;-56
2021/06/18 00:06:29;;;;;;;4.80;2.50;;;;;;;20.43;68.12;100787.90;1745658;82;21238;-58
2021/06/18 00:09:36;;;;;;;5.75;2.75;;;;;;;20.40;68.27;100796.17;1745777;82;21225;-58
2021/06/18 00:12:42;;;;;;;7.70;2.80;;;;;;;20.40;68.48;100793.39;1745738;82;21199;-59
2021/06/18 00:15:47;;;;;;;8.85;2.67;;;;;;;20.40;68.46;100785.58;1745656;82;21818;-57
2021/06/18 00:18:53;;;;;;;5.60;2.52;;;;;;;20.39;68.53;100790.28;1686721;84;21281;-59
2021/06/18 00:21:59;;;;;;;5.90;2.55;;;;;;;20.40;68.56;100795.31;1746397;81;21349;-57
2021/06/18 00:25:05;;;;;;;4.97;2.92;;;;;;;20.41;68.55;100791.44;1745613;82;21224;-57
2021/06/18 00:28:10;;;;;;;4.35;2.70;;;;;;;20.39;68.57;100796.41;1686363;85;21446;-57
2021/06/18 00:31:15;;;;;;;7.22;2.35;;;;;;;20.36;68.75;100792.13;1737748;78;21507;-57
2021/06/18 00:34:21;;;;;;;6.28;3.05;;;;;;;20.35;68.78;100795.14;1732414;82;21208;-58
2021/06/18 00:37:26;;;;;;;9.33;2.72;;;;;;;20.33;68.85;100788.95;1732113;83;21256;-58
2021/06/18 00:40:32;;;;;;;3.72;2.67;;;;;;;20.33;69.03;100780.61;1732201;82;21260;-58
2021/06/18 00:43:38;;;;;;;8.43;2.87;;;;;;;20.32;69.01;100781.70;1732535;82;21197;-55
2021/06/18 00:46:44;;;;;;;4.45;2.72;;;;;;;20.30;69.09;100776.37;1731940;82;21516;-58
2021/06/18 00:49:50;;;;;;;5.22;3.08;;;;;;;20.30;69.17;100781.07;1732143;83;21283;-57
2021/06/18 00:52:55;;;;;;;4.03;2.72;;;;;;;20.27;69.32;100781.00;1732575;82;21181;-56
2021/06/18 00:56:00;;;;;;;5.12;2.67;;;;;;;20.25;69.39;100790.11;1732389;82;21227;-58
2021/06/18 00:59:05;;;;;;;10.40;3.47;;;;;;;20.24;69.51;100788.42;1732394;82;21220;-58
2021/06/18 01:02:10;;;;;;;4.83;2.50;;;;;;;20.23;69.59;100789.47;1732715;82;21216;-58
2021/06/18 01:05:19;;;;;;;3.98;2.62;;;;;;;20.23;69.66;100788.65;1732707;82;21422;-57
2021/06/18 01:08:31;;;;;;;5.83;3.10;;;;;;;20.23;69.65;100783.09;1732267;82;21837;-58
2021/06/18 01:12:04;;;;;;;6.42;2.92;;;;;;;20.21;69.66;100788.88;1732157;83;21374;-59
2021/06/18 01:15:35;;;;;;;8.43;3.40;;;;;;;20.21;69.56;100790.80;1732427;82;21232;-58
2021/06/18 01:18:56;;;;;;;5.12;2.60;;;;;;;20.21;69.63;100797.75;1732364;82;21358;-60
2021/06/18 01:22:10;;;;;;;4.28;2.70;;;;;;;20.20;69.66;100806.63;1732352;82;21342;-60
2021/06/18 01:25:53;;;;;;;9.15;2.90;;;;;;;20.16;69.63;100804.00;1732158;82;21252;-57
2021/06/18 01:29:04;;;;;;;9.95;3.12;;;;;;;20.15;69.55;100804.23;1633877;86;21242;-58
2021/06/18 01:32:15;;;;;;;8.58;3.00;;;;;;;20.12;69.56;100812.43;1638250;82;21300;-57
2021/06/18 01:35:23;;;;;;;4.72;2.30;;;;;;;20.12;69.71;100814.38;1678770;85;21255;-58
2021/06/18 01:38:29;;;;;;;6.25;2.60;;;;;;;20.11;69.97;100814.91;1707445;83;21402;-57
2021/06/18 01:41:37;;;;;;;6.85;3.00;;;;;;;20.12;69.96;100816.60;1742728;82;21832;-57
2021/06/18 01:44:43;;;;;;;7.80;2.45;;;;;;;20.12;69.67;100811.60;1742760;82;21298;-57
2021/06/18 01:47:50;;;;;;;8.23;3.25;;;;;;;20.11;69.55;100816.83;1742659;82;21303;-57
2021/06/18 01:50:55;;;;;;;4.08;2.70;;;;;;;20.12;69.53;100814.38;1742691;82;21216;-58
2021/06/18 01:54:01;;;;;;;6.50;2.87;;;;;;;20.13;69.33;100813.30;1742813;82;21199;-58
2021/06/18 01:57:08;;;;;;;11.55;2.50;;;;;;;20.12;69.09;100815.77;1742767;82;21176;-59
2021/06/18 02:00:16;;;;;;;4.20;2.42;;;;;;;20.14;69.00;100826.14;1742683;82;21220;-59
2021/06/18 02:03:26;;;;;;;5.60;2.80;;;;;;;20.15;68.86;100827.86;1742783;82;21713;-59
2021/06/18 02:06:32;;;;;;;10.00;2.87;;;;;;;20.18;68.65;100828.27;1742611;82;21294;-58
2021/06/18 02:09:38;;;;;;;6.75;2.37;;;;;;;20.21;68.60;100824.16;1742774;82;21271;-57
2021/06/18 02:12:43;;;;;;;3.98;2.58;;;;;;;20.22;68.23;100827.23;1742782;82;22135;-56
2021/06/18 02:15:50;;;;;;;8.25;2.58;;;;;;;20.25;68.26;100823.48;1742752;82;21207;-55
2021/06/18 02:18:55;;;;;;;11.15;2.33;;;;;;;20.28;68.13;100827.75;1742730;82;21212;-56
2021/06/18 02:22:02;;;;;;;8.33;2.50;;;;;;;20.31;68.18;100828.11;1742685;82;21580;-57
2021/06/18 02:25:08;;;;;;;6.58;2.40;;;;;;;20.35;67.92;100835.47;1742525;82;21220;-57
2021/06/18 02:28:14;;;;;;;14.93;5.65;;;;;;;20.40;67.77;100842.59;1742700;82;21768;-57
2021/06/18 02:31:19;;;;;;;5.58;2.30;;;;;;;20.42;67.65;100839.05;1742746;82;21212;-58
2021/06/18 02:34:25;;;;;;;4.40;2.35;;;;;;;20.45;67.55;100844.16;1763724;81;21227;-57
2021/06/18 02:37:31;;;;;;;6.55;2.37;;;;;;;20.47;67.44;100837.83;1763786;81;21212;-57
2021/06/18 02:40:37;;;;;;;5.60;2.50;;;;;;;20.50;67.56;100836.81;1763932;81;21254;-58
2021/06/18 02:43:43;;;;;;;9.50;3.08;;;;;;;20.52;67.46;100833.80;1764151;81;21205;-58
2021/06/18 02:47:10;;;;;;;5.45;2.25;;;;;;;20.54;67.31;100830.25;1764501;81;21359;-57
2021/06/18 02:50:23;;;;;;;6.20;2.47;;;;;;;20.53;67.26;100839.69;1763846;81;21725;-57
2021/06/18 02:54:01;;;;;;;7.80;2.65;;;;;;;20.54;67.39;100844.16;1764463;81;21927;-57
2021/06/18 02:57:29;;;;;;;9.15;2.72;;;;;;;20.53;67.54;100847.47;1764028;81;21323;-58
2021/06/18 03:00:35;;;;;;;3.27;2.20;;;;;;;20.58;67.78;100849.59;1764078;81;21366;-59
2021/06/18 03:03:47;;;;;;;5.00;2.40;;;;;;;20.67;67.53;100844.03;1764076;81;21200;-61
2021/06/18 03:06:53;;;;;;;5.35;2.62;;;;;;;20.76;67.23;100842.64;1764477;81;21478;-60
2021/06/18 03:10:01;;;;;;;4.75;2.50;;;;;;;20.83;66.64;100849.83;1747859;81;21207;-60
2021/06/18 03:13:18;;;;;;;5.37;2.87;;;;;;;20.90;66.19;100851.14;1764862;81;21271;-59
2021/06/18 03:16:23;;;;;;;4.95;1.95;;;;;;;20.97;65.97;100860.32;1763857;81;21366;-61
2021/06/18 03:19:29;;;;;;;5.35;2.50;;;;;;;21.05;65.73;100875.33;1763808;81;21193;-60
2021/06/18 03:22:36;;;;;;;3.87;2.08;;;;;;;21.13;65.78;100882.52;1764317;81;21342;-60
2021/06/18 03:25:43;;;;;;;7.78;2.40;;;;;;;21.19;65.54;100881.58;1763820;81;21402;-58
2021/06/18 03:28:49;;;;;;;5.83;2.17;;;;;;;21.24;65.10;100884.52;1763796;81;21275;-61
2021/06/18 03:31:55;;;;;;;6.53;2.17;;;;;;;21.28;65.20;100878.24;1764080;81;21366;-60
2021/06/18 03:35:02;;;;;;;7.47;2.02;;;;;;;21.36;65.07;100879.88;1762625;81;21168;-61
2021/06/18 03:38:09;;;;;;;10.20;2.33;;;;;;;21.39;64.72;100878.84;1750334;81;21204;-61
2021/06/18 03:41:14;;;;;;;7.58;2.27;;;;;;;21.44;64.75;100879.53;1766477;81;21413;-61
2021/06/18 03:44:22;;;;;;;6.22;2.27;;;;;;;21.49;64.56;100878.30;1766581;81;21347;-59
2021/06/18 03:47:29;;;;;;;4.72;2.22;;;;;;;21.54;64.87;100879.30;1766485;81;21876;-62
2021/06/18 03:50:34;;;;;;;4.95;1.90;;;;;;;21.58;64.46;100886.66;1766646;81;21374;-60
2021/06/18 03:53:40;;;;;;;8.18;2.00;;;;;;;21.61;64.54;100881.44;1766623;81;21327;-62
2021/06/18 03:56:50;;;;;;;4.95;1.98;;;;;;;21.66;64.19;100884.94;1766561;81;21207;-61
2021/06/18 03:59:56;;;;;;;4.97;2.40;;;;;;;21.70;64.14;100876.40;1766584;81;21354;-60
2021/06/18 04:03:04;;;;;;;4.60;1.92;;;;;;;21.73;64.01;100882.89;1766563;81;21252;-60
2021/06/18 04:06:12;;;;;;;5.92;2.00;;;;;;;21.68;64.19;100881.35;1766556;81;21382;-61
2021/06/18 04:09:18;;;;;;;9.03;2.37;;;;;;;21.63;64.24;100882.06;1766575;81;21394;-61
2021/06/18 04:12:23;;;;;;;8.30;2.40;;;;;;;21.56;64.27;100884.11;1766591;81;21367;-63
2021/06/18 04:15:29;;;;;;;9.48;2.20;;;;;;;21.53;64.51;100884.55;1766453;81;21292;-59
2021/06/18 04:18:34;;;;;;;5.12;2.20;;;;;;;21.50;64.49;100876.66;1754708;80;21362;-60
2021/06/18 04:21:39;;;;;;;7.37;2.35;;;;;;;21.44;64.71;100877.61;1747163;82;21450;-61
2021/06/18 04:24:44;;;;;;;8.98;2.12;;;;;;;21.40;64.95;100875.53;1747109;82;21377;-61
2021/06/18 04:27:49;;;;;;;9.98;2.58;;;;;;;21.38;65.11;100877.16;1747510;82;21906;-59
2021/06/18 04:30:54;;;;;;;7.42;2.52;;;;;;;21.40;65.34;100887.53;1747724;82;21432;-61
2021/06/18 04:33:59;;;;;;;6.37;2.27;;;;;;;21.41;65.57;100898.98;1747460;82;21212;-60
2021/06/18 04:37:05;;;;;;;7.47;2.30;;;;;;;21.48;65.49;100898.89;1747526;82;21335;-62
2021/06/18 04:40:13;;;;;;;6.28;2.30;;;;;;;21.59;65.29;100898.10;1747459;82;21240;-60
2021/06/18 04:43:17;;;;;;;7.35;2.45;;;;;;;21.70;65.31;100898.16;1747070;82;21333;-59
2021/06/18 04:46:22;;;;;;;7.37;2.30;;;;;;;21.80;65.05;100908.78;1747055;82;21354;-59
2021/06/18 04:49:28;;;;;;;5.25;2.20;;;;;;;21.91;64.65;100897.65;1746984;82;21397;-58
2021/06/18 04:52:36;;;;;;;11.48;2.70;;;;;;;22.01;63.81;100904.91;1738487;82;21629;-55
2021/06/18 04:55:44;;;;;;;5.55;2.55;;;;;;;22.10;63.66;100909.05;1747622;82;21428;-57
2021/06/18 04:58:49;;;;;;;12.90;3.30;;;;;;;22.22;63.38;100911.87;1747977;82;21350;-58
2021/06/18 05:01:55;;;;;;;6.95;2.47;;;;;;;22.36;63.36;100914.75;1717845;83;21214;-56
2021/06/18 05:05:01;;;;;;;12.90;2.10;;;;;;;22.48;62.69;100918.97;1721056;81;21429;-54
2021/06/18 05:08:06;;;;;;;7.17;2.15;;;;;;;22.57;61.56;100907.78;1712780;84;21418;-55
2021/06/18 05:11:12;;;;;;;6.95;2.37;;;;;;;22.64;61.58;100911.32;1712879;83;21394;-55
2021/06/18 05:14:17;;;;;;;7.20;1.85;;;;;;;22.68;60.91;100907.80;1718055;82;21211;-52
2021/06/18 05:17:23;;;;;;;9.30;2.62;;;;;;;22.73;60.75;100903.74;1716910;83;21504;-54
2021/06/18 05:20:29;;;;;;;10.30;2.35;;;;;;;22.76;61.07;100909.38;1725068;82;21239;-52
2021/06/18 05:23:35;;;;;;;8.25;2.27;;;;;;;22.82;60.55;100909.80;1745105;82;21216;-52
2021/06/18 05:26:42;;;;;;;5.58;2.40;;;;;;;22.82;60.79;100911.19;1747263;82;21335;-54
2021/06/18 05:29:48;;;;;;;6.47;2.17;;;;;;;22.85;61.20;100918.54;1747606;82;21228;-53
2021/06/18 05:32:54;;;;;;;14.05;2.50;;;;;;;22.99;61.57;100926.97;1745559;82;21397;-52
2021/06/18 05:36:00;;;;;;;12.98;2.50;;;;;;;23.10;60.64;100923.31;1721380;81;21223;-53
2021/06/18 05:39:05;;;;;;;5.75;2.40;;;;;;;23.19;59.95;100934.98;1724904;82;21262;-52
2021/06/18 05:42:12;;;;;;;10.95;2.00;;;;;;;23.30;59.80;100924.36;1714497;83;21419;-53
2021/06/18 05:45:19;;;;;;;4.65;2.15;;;;;;;23.44;59.91;100934.17;1704234;83;21246;-53
2021/06/18 05:48:25;;;;;;;6.90;2.22;;;;;;;23.55;60.00;100921.58;1695103;84;21266;-52
2021/06/18 05:51:30;;;;;;;5.85;2.25;;;;;;;23.67;59.54;100924.89;1695019;84;21380;-51
2021/06/18 05:54:35;;;;;;;18.45;2.30;;;;;;;23.71;58.90;100930.27;1695038;84;21425;-54
2021/06/18 05:57:45;;;;;;;6.65;2.10;;;;;;;23.74;58.70;100932.59;1690950;84;21344;-53
2021/06/18 06:00:51;;;;;;;6.53;2.15;;;;;;;23.84;58.76;100943.97;1684290;84;21281;-54
2021/06/18 06:03:58;;;;;;;8.68;2.67;;;;;;;24.01;58.75;100949.09;1677783;85;21375;-53
2021/06/18 06:07:04;;;;;;;7.08;2.20;;;;;;;24.19;57.95;100946.95;1677932;85;21542;-54
2021/06/18 06:10:11;;;;;;;4.85;2.00;;;;;;;24.37;58.33;100974.70;1677808;85;21348;-52
2021/06/18 06:13:16;;;;;;;3.95;1.80;;;;;;;24.58;57.73;100964.19;1695347;84;21230;-52
2021/06/18 06:16:25;;;;;;;7.25;2.17;;;;;;;24.76;57.01;100975.73;1700589;83;21192;-52
2021/06/18 06:19:31;;;;;;;4.65;2.22;;;;;;;24.87;56.39;100986.86;1724241;81;21216;-52
2021/06/18 06:22:37;;;;;;;7.15;2.45;;;;;;;24.83;55.94;100980.05;1709226;83;21864;-55
2021/06/18 06:25:42;;;;;;;6.30;2.15;;;;;;;24.76;56.02;100989.19;1705252;83;21240;-53
2021/06/18 06:28:48;;;;;;;7.20;2.40;;;;;;;24.73;55.95;100988.84;1720517;81;21523;-55
2021/06/18 06:31:54;;;;;;;7.90;2.65;;;;;;;24.70;55.98;100998.61;1715613;81;21962;-55
2021/06/18 06:34:59;;;;;;;6.50;2.40;;;;;;;24.73;56.17;101009.31;1713449;83;21779;-51
2021/06/18 06:38:04;;;;;;;6.45;2.62;;;;;;;24.69;56.10;101010.03;1703651;83;21237;-53
2021/06/18 06:41:10;;;;;;;9.15;2.55;;;;;;;24.66;56.47;101016.12;1701086;83;21290;-54
2021/06/18 06:44:15;;;;;;;6.45;2.22;;;;;;;24.62;56.93;101018.59;1696965;84;21227;-53
2021/06/18 06:47:20;;;;;;;6.35;2.20;;;;;;;24.51;57.11;101023.71;1697787;83;21220;-54
2021/06/18 06:50:26;;;;;;;13.08;2.80;;;;;;;24.45;57.41;101023.29;1681450;84;21205;-53
2021/06/18 06:53:32;;;;;;;12.65;2.58;;;;;;;24.45;57.69;101021.89;1681614;85;21351;-53
2021/06/18 06:56:38;;;;;;;9.63;3.37;;;;;;;24.41;57.35;101024.91;1683778;84;21228;-55
2021/06/18 06:59:43;;;;;;;13.88;3.60;;;;;;;24.30;57.87;101020.21;1659402;85;21213;-54
2021/06/18 07:02:48;;;;;;;11.08;2.40;;;;;;;24.37;58.03;101013.06;1681965;84;21734;-51
2021/06/18 07:05:55;;;;;;;9.10;2.50;;;;;;;24.42;58.09;101018.20;1682252;85;21363;-56
2021/06/18 07:09:00;;;;;;;5.90;2.45;;;;;;;24.44;57.68;101001.15;1685007;84;21260;-53
2021/06/18 07:12:04;;;;;;;4.80;2.10;;;;;;;24.40;57.61;101013.42;1654268;86;21789;-53
2021/06/18 07:15:09;;;;;;;3.10;2.10;;;;;;;24.39;57.92;101007.50;1675802;85;21220;-54
2021/06/18 07:18:14;;;;;;;6.30;2.25;;;;;;;24.41;57.61;101010.05;1676528;85;21239;-53
2021/06/18 07:21:20;;;;;;;8.45;2.42;;;;;;;24.52;57.62;101014.20;1680029;84;21248;-52
2021/06/18 07:24:25;;;;;;;9.20;2.37;;;;;;;24.69;57.50;101019.30;1654276;86;21304;-53
2021/06/18 07:27:31;;;;;;;6.10;2.45;;;;;;;24.79;57.64;101027.89;1653919;85;21595;-53
2021/06/18 07:30:37;;;;;;;7.10;2.58;;;;;;;24.86;56.75;101029.96;1666339;85;21213;-54
2021/06/18 07:33:42;;;;;;;8.43;2.85;;;;;;;24.82;56.98;101029.33;1682563;84;21213;-53
2021/06/18 07:36:47;;;;;;;8.10;2.85;;;;;;;24.79;56.85;101028.44;1682621;84;21939;-54
2021/06/18 07:39:54;;;;;;;5.25;2.90;;;;;;;24.75;57.15;101032.28;1698121;83;21866;-54
2021/06/18 07:43:02;;;;;;;12.93;3.50;;;;;;;24.68;57.30;101034.41;1703462;83;21188;-56
2021/06/18 07:46:08;;;;;;;10.13;3.62;;;;;;;24.63;57.66;101035.69;1731636;82;21228;-55
2021/06/18 07:49:12;;;;;;;8.75;3.37;;;;;;;24.75;57.95;101039.29;1703320;82;21709;-56
2021/06/18 07:52:19;;;;;;;9.08;2.90;;;;;;;24.87;57.78;101037.83;1731019;82;21772;-54
2021/06/18 07:55:27;;;;;;;8.45;2.72;;;;;;;25.00;57.73;101042.56;1675709;83;21217;-55
2021/06/18 07:58:31;;;;;;;8.75;2.40;;;;;;;25.11;57.68;101039.37;1690244;83;21205;-53
2021/06/18 08:01:38;;;;;;;7.00;2.35;;;;;;;25.15;57.13;101033.53;1688828;83;21254;-55
2021/06/18 08:04:43;;;;;;;8.50;2.60;;;;;;;25.21;57.15;101040.09;1704257;83;21273;-53
2021/06/18 08:07:50;;;;;;;6.03;2.40;;;;;;;25.33;57.28;101045.03;1703173;83;21387;-53
2021/06/18 08:10:55;;;;;;;4.95;3.00;;;;;;;25.43;56.99;101041.89;1700071;82;21250;-55
2021/06/18 08:14:01;;;;;;;10.90;2.40;;;;;;;25.54;56.80;101043.73;1705058;83;21205;-54
2021/06/18 08:17:07;;;;;;;7.97;3.20;;;;;;;25.69;57.00;101038.33;1697972;83;21253;-55
2021/06/18 08:20:19;;;;;;;4.90;2.50;;;;;;;25.69;56.45;101037.51;1707622;81;21224;-56
2021/06/18 08:23:23;;;;;;;10.50;2.72;;;;;;;25.62;57.07;101034.02;1659566;86;21362;-56
2021/06/18 08:26:30;;;;;;;9.30;2.42;;;;;;;25.61;56.70;101026.73;1656215;86;21730;-56
2021/06/18 08:29:35;;;;;;;11.12;2.95;;;;;;;25.69;57.13;101026.29;1655663;86;21205;-57
2021/06/18 08:32:40;;;;;;;10.08;2.30;;;;;;;25.91;57.07;101032.18;1655575;86;21193;-57
2021/06/18 08:35:47;;;;;;;9.35;2.62;;;;;;;26.17;56.29;101034.80;1672812;84;21326;-56
2021/06/18 08:38:52;;;;;;;8.38;2.47;;;;;;;26.35;55.92;101034.46;1676915;84;21225;-55
2021/06/18 08:41:59;;;;;;;8.63;2.30;;;;;;;26.56;56.36;101037.77;1741467;82;21351;-57
2021/06/18 08:45:04;;;;;;;7.03;2.70;;;;;;;26.73;55.83;101037.70;1741044;82;21350;-53
2021/06/18 08:48:08;;;;;;;9.63;2.55;;;;;;;26.84;55.42;101026.84;1740224;80;21747;-56
2021/06/18 08:51:13;;;;;;;8.40;2.55;;;;;;;26.90;54.82;101026.63;1715254;82;21230;-54
2021/06/18 08:54:18;;;;;;;8.48;2.35;;;;;;;27.08;54.84;101023.42;1742871;81;21691;-54
2021/06/18 08:57:25;;;;;;;6.15;3.30;;;;;;;27.20;54.01;101014.23;1753279;81;21580;-54
2021/06/18 09:00:31;;;;;;;10.48;2.75;;;;;;;27.24;53.92;101019.59;1735729;82;21414;-56
2021/06/18 09:03:55;;;;;;;9.03;2.62;;;;;;;27.21;53.88;101018.72;1731511;83;21383;-55
2021/06/18 09:07:08;;;;;;;12.88;2.60;;;;;;;27.19;53.77;101020.13;1731442;83;21781;-56
2021/06/18 09:10:47;;;;;;;10.80;2.12;;;;;;;27.15;54.17;101013.33;1732471;82;21271;-59
2021/06/18 09:13:53;;;;;;;7.72;2.30;;;;;;;27.09;54.71;101006.83;1712845;83;21203;-56
2021/06/18 09:17:34;;;;;;;5.25;2.37;;;;;;;27.05;54.30;101004.25;1731357;80;21169;-59
2021/06/18 09:20:36;;;;;;;14.68;2.72;;;;;;;26.95;53.94;100983.11;1779209;80;21280;-58
2021/06/18 09:23:45;;;;;;;5.30;2.40;;;;;;;26.81;54.80;100999.28;1739741;82;21211;-55
2021/06/18 09:26:51;;;;;;;7.15;2.47;;;;;;;26.78;55.07;101006.84;1779248;80;21386;-54
2021/06/18 09:29:56;;;;;;;8.45;2.52;;;;;;;26.74;54.64;101000.05;1739656;82;21232;-54
2021/06/18 09:33:27;;;;;;;6.67;2.60;;;;;;;26.64;54.76;101000.80;1779209;80;21363;-54
2021/06/18 09:36:34;;;;;;;5.37;2.33;;;;;;;26.59;55.43;101002.69;1738756;82;21184;-55
2021/06/18 09:39:39;;;;;;;5.40;2.50;;;;;;;26.70;56.07;100998.90;1778364;79;21951;-56
2021/06/18 09:42:56;;;;;;;4.85;2.15;;;;;;;26.92;55.85;100991.23;1734556;78;21413;-55
2021/06/18 09:46:03;;;;;;;5.78;2.30;;;;;;;27.22;55.13;100997.09;1734142;82;21299;-56
2021/06/18 09:49:07;;;;;;;8.70;2.37;;;;;;;27.41;54.28;100998.38;1702398;82;21172;-55
2021/06/18 09:52:18;;;;;;;8.55;5.25;;;;;;;27.44;54.60;100991.66;1726933;82;21202;-57
2021/06/18 09:55:30;;;;;;;9.58;2.80;;;;;;;27.60;54.51;100983.59;1751965;80;21267;-56
2021/06/18 09:58:52;;;;;;;10.63;2.55;;;;;;;27.81;54.33;100982.55;1730388;82;21184;-56
2021/06/18 10:02:02;;;;;;;13.20;2.30;;;;;;;27.92;54.29;100978.42;1728490;81;21732;-57
2021/06/18 10:05:11;;;;;;;11.30;2.40;;;;;;;28.07;53.94;100976.50;1766948;80;21213;-58
2021/06/18 10:08:17;;;;;;;6.00;2.52;;;;;;;28.16;52.77;100983.31;1738723;82;21207;-54
2021/06/18 10:11:23;;;;;;;8.08;2.58;;;;;;;28.19;52.85;100983.30;1763377;80;21223;-56
2021/06/18 10:14:28;;;;;;;4.95;1.98;;;;;;;28.35;52.61;100989.27;1727373;83;21769;-55
2021/06/18 10:17:34;;;;;;;5.25;2.22;;;;;;;28.53;52.28;100974.66;1731929;81;21195;-56
2021/06/18 10:20:39;;;;;;;7.72;2.50;;;;;;;28.59;51.72;100980.63;1736880;81;21239;-53
2021/06/18 10:23:44;;;;;;;9.65;3.20;;;;;;;28.55;51.43;100973.28;1736636;81;21208;-54
2021/06/18 10:26:50;;;;;;;8.33;2.20;;;;;;;28.60;50.81;100976.11;1732456;81;21231;-56
2021/06/18 10:29:56;;;;;;;4.35;2.12;;;;;;;28.70;51.24;100978.09;1729801;80;21254;-54
2021/06/18 10:33:03;;;;;;;4.78;2.15;;;;;;;28.76;51.35;100973.59;1728112;83;21283;-56
2021/06/18 10:36:29;;;;;;;4.75;2.62;;;;;;;28.81;51.15;100972.74;1736807;81;21233;-54
2021/06/18 10:39:37;;;;;;;3.30;2.25;;;;;;;28.84;50.90;100975.00;1705461;84;21265;-54
2021/06/18 10:42:42;;;;;;;9.68;2.40;;;;;;;28.83;50.80;100983.15;1730014;80;21585;-55
2021/06/18 10:46:12;;;;;;;8.68;2.85;;;;;;;28.74;51.26;100985.70;1745144;81;21363;-55
2021/06/18 10:49:21;;;;;;;8.88;2.62;;;;;;;28.67;50.98;100981.47;1748219;80;21856;-57
2021/06/18 10:52:31;;;;;;;10.70;3.05;;;;;;;28.49;51.55;100983.41;1747207;81;21373;-56
2021/06/18 10:55:57;;;;;;;7.00;3.22;;;;;;;28.40;51.84;100983.66;1741294;82;22115;-55
2021/06/18 10:59:20;;;;;;;8.68;2.70;;;;;;;28.25;52.26;100979.37;1746632;82;21860;-56
2021/06/18 11:02:36;;;;;;;8.93;2.92;;;;;;;28.27;52.60;100981.36;1747674;82;21917;-55
2021/06/18 11:05:46;;;;;;;6.62;2.67;;;;;;;28.44;52.81;100986.18;1747583;82;21386;-56
2021/06/18 11:08:54;;;;;;;8.75;2.83;;;;;;;28.49;51.54;100984.81;1752620;81;21339;-56
2021/06/18 11:12:01;;;;;;;10.68;2.62;;;;;;;28.41;51.54;100984.78;1760690;81;21256;-59
2021/06/18 11:15:07;;;;;;;9.38;2.98;;;;;;;28.29;52.29;100999.66;1754471;81;21410;-57
2021/06/18 11:18:18;;;;;;;4.85;3.10;;;;;;;28.32;52.25;100992.64;1730568;83;21220;-58
2021/06/18 11:21:28;;;;;;;12.60;3.60;;;;;;;28.34;51.88;100988.96;1725471;82;21843;-57
2021/06/18 11:24:47;;;;;;;12.88;2.92;;;;;;;28.31;51.82;101002.20;1669990;83;21243;-58
2021/06/18 11:27:52;;;;;;;11.40;3.10;;;;;;;28.25;52.38;101004.72;1708576;83;21638;-56
2021/06/18 11:31:05;;;;;;;9.55;2.75;;;;;;;28.26;53.24;101005.85;1726027;82;21745;-57
2021/06/18 11:34:08;;;;;;;6.33;2.62;;;;;;;28.42;52.36;101006.18;1727097;83;21279;-55
2021/06/18 11:37:13;;;;;;;6.40;2.87;;;;;;;28.50;52.37;101001.44;1685204;85;21289;-57
2021/06/18 11:40:19;;;;;;;4.28;2.17;;;;;;;28.61;51.78;101014.98;1692090;82;21260;-58
2021/06/18 11:43:24;;;;;;;5.28;2.65;;;;;;;28.68;51.75;101005.70;1682807;82;21229;-56
2021/06/18 11:46:34;;;;;;;9.48;2.35;;;;;;;28.70;51.89;101009.09;1618103;86;21244;-58
2021/06/18 11:49:41;;;;;;;11.45;3.08;;;;;;;28.76;51.93;100999.52;1664443;85;21214;-56
2021/06/18 11:52:45;;;;;;;8.30;3.00;;;;;;;28.76;51.24;100993.88;1648095;87;21185;-57
2021/06/18 11:55:51;;;;;;;7.70;2.58;;;;;;;28.90;51.05;101001.50;1640751;86;21247;-57
2021/06/18 11:58:58;;;;;;;8.75;2.60;;;;;;;29.15;50.26;100998.70;1667519;84;21283;-57
2021/06/18 12:02:03;;;;;;;8.10;2.77;;;;;;;29.37;50.50;101001.20;1669150;85;21252;-58
2021/06/18 12:05:20;;;;;;;16.00;3.37;;;;;;;29.55;49.50;100989.33;1667665;85;21199;-57
2021/06/18 12:08:26;;;;;;;5.37;2.50;;;;;;;29.70;49.06;100990.70;1674208;85;21179;-57
2021/06/18 12:11:32;;;;;;;7.85;2.70;;;;;;;29.88;46.83;100991.50;1695609;84;21222;-58
2021/06/18 12:14:54;;;;;;;5.40;2.80;;;;;;;29.88;46.83;100991.50;1696548;83;21203;-60
2021/06/18 12:18:05;;;;;;;7.95;2.90;;;;;;;29.93;46.85;100988.66;1696154;84;21364;-58
2021/06/18 12:21:15;;;;;;;3.50;2.35;;;;;;;29.93;46.85;100988.66;1696917;84;21343;-58
2021/06/18 12:24:20;;;;;;;8.43;2.50;;;;;;;29.95;46.72;100989.78;1697843;84;21373;-56
2021/06/18 12:27:34;;;;;;;7.60;3.05;;;;;;;29.84;46.29;100996.61;1697750;84;21759;-56
2021/06/18 12:30:41;;;;;;;11.63;3.12;;;;;;;29.62;46.80;100995.50;1667895;85;21913;-58
2021/06/18 12:33:47;;;;;;;6.65;3.00;;;;;;;29.59;47.26;100993.84;1695044;84;21817;-57
2021/06/18 12:36:51;;;;;;;10.08;2.87;;;;;;;29.59;47.26;100993.84;1694013;84;21248;-57
2021/06/18 12:40:04;;;;;;;8.58;3.02;;;;;;;29.61;47.19;100990.99;1731444;82;21375;-58
2021/06/18 12:43:15;;;;;;;8.03;2.67;;;;;;;29.68;47.55;100998.64;1724829;82;21776;-58
2021/06/18 12:46:28;;;;;;;9.40;2.58;;;;;;;29.75;47.46;100994.93;1733367;82;21227;-58
2021/06/18 12:49:37;;;;;;;7.40;2.35;;;;;;;29.75;47.61;101005.41;1744872;82;21247;-58
2021/06/18 12:52:45;;;;;;;16.55;3.17;;;;;;;29.70;47.03;100995.53;1744535;82;21187;-58
2021/06/18 12:55:58;;;;;;;10.85;2.70;;;;;;;29.66;47.49;100995.80;1744773;82;21235;-59
2021/06/18 12:59:02;;;;;;;4.50;2.27;;;;;;;29.76;47.43;100995.78;1745323;82;21231;-59
2021/06/18 13:02:08;;;;;;;3.55;2.30;;;;;;;29.74;46.20;100992.39;1744295;82;21212;-57
2021/06/18 13:05:27;;;;;;;4.67;2.42;;;;;;;29.74;46.20;100992.39;1738860;82;21246;-58
2021/06/18 13:08:34;;;;;;;6.05;2.37;;;;;;;29.67;45.84;100981.41;1721177;82;21354;-57
2021/06/18 13:11:46;;;;;;;8.88;2.50;;;;;;;29.59;46.35;100978.31;1739988;81;21275;-58
2021/06/18 13:14:51;;;;;;;7.10;2.45;;;;;;;29.54;46.03;100980.59;1734527;82;21216;-57
2021/06/18 13:18:01;;;;;;;12.15;2.50;;;;;;;29.63;44.55;100977.45;1735403;82;22030;-58
2021/06/18 13:21:12;;;;;;;8.88;2.25;;;;;;;29.63;44.55;100977.45;1735578;82;21787;-58
2021/06/18 13:24:24;;;;;;;5.58;2.17;;;;;;;29.50;43.93;100982.83;1734762;82;21259;-59
2021/06/18 13:27:33;;;;;;;7.58;2.42;;;;;;;29.39;45.52;100978.34;1735003;82;21220;-58
2021/06/18 13:30:43;;;;;;;8.15;2.00;;;;;;;29.39;45.52;100978.34;1735690;82;21283;-58
2021/06/18 13:33:50;;;;;;;3.62;2.47;;;;;;;29.47;45.78;100972.97;1735571;82;21232;-57
2021/06/18 13:36:56;;;;;;;9.73;2.52;;;;;;;29.53;45.24;100975.20;1715498;83;21413;-58
2021/06/18 13:40:32;;;;;;;7.03;1.90;;;;;;;29.45;43.39;100978.05;1715043;83;21421;-59
2021/06/18 13:43:40;;;;;;;8.05;2.35;;;;;;;29.32;43.88;100971.58;1670279;85;21314;-58
2021/06/18 13:46:48;;;;;;;7.33;2.10;;;;;;;29.28;43.12;100979.49;1645285;82;21243;-57
2021/06/18 13:49:53;;;;;;;5.75;2.00;;;;;;;29.36;42.87;100969.89;1683556;84;21279;-58
2021/06/18 13:53:00;;;;;;;11.57;2.00;;;;;;;29.44;42.09;100976.92;1682388;85;21556;-58
2021/06/18 13:56:07;;;;;;;14.60;3.08;;;;;;;29.53;42.45;100978.88;1683146;85;21943;-58
2021/06/18 13:59:15;;;;;;;33.15;8.20;;;;;;;29.59;41.97;100974.08;1706805;84;21213;-58
2021/06/18 14:02:21;;;;;;;26.20;5.28;;;;;;;29.62;42.06;100965.86;1698802;84;21230;-59
2021/06/18 14:05:27;;;;;;;34.35;6.78;;;;;;;29.62;41.51;100971.50;1701946;83;21264;-58
2021/06/18 14:08:35;;;;;;;8.73;2.35;;;;;;;29.62;42.05;100974.91;1740717;82;21817;-57
2021/06/18 14:11:42;;;;;;;11.75;2.47;;;;;;;29.60;41.63;100968.14;1740869;82;21370;-57
2021/06/18 14:14:54;;;;;;;10.00;2.58;;;;;;;29.55;41.27;100963.06;1740938;82;21362;-57
2021/06/18 14:17:56;;;;;;;6.92;2.65;;;;;;;29.50;41.83;100963.94;1676431;85;21240;-57
2021/06/18 14:21:02;;;;;;;14.83;3.08;;;;;;;29.42;42.11;100958.02;1663148;85;21292;-56
2021/06/18 14:24:07;;;;;;;8.23;3.05;;;;;;;29.29;42.69;100967.92;1664353;85;21256;-57
2021/06/18 14:27:13;;;;;;;20.57;4.62;;;;;;;29.19;42.52;100968.78;1698095;84;21225;-57
2021/06/18 14:30:21;;;;;;;7.72;2.30;;;;;;;29.17;42.72;100971.06;1710652;83;21247;-58
2021/06/18 14:33:25;;;;;;;13.93;2.17;;;;;;;29.19;41.50;100977.83;1706357;83;21204;-57